sensor_id;sensor_type;location;lat;lon;timestamp;pressure;altitude;pressure_sealevel;temperature;humidity
61528;BME280;47395;42.032;-8.634;2024-03-22T00:00:00;75263.44;;;-148.63;34.19
61528;BME280;47395;42.032;-8.634;2024-03-22T00:02:01;75295.44;;;-148.63;34.34
61528;BME280;47395;42.032;-8.634;2024-03-22T00:04:03;75319.44;;;-148.63;34.64
61528;BME280;47395;42.032;-8.634;2024-03-22T00:06:04;75277.44;;;-148.63;34.23
61528;BME280;47395;42.032;-8.634;2024-03-22T00:08:05;75285.44;;;-148.63;34.36
61528;BME280;47395;42.032;-8.634;2024-03-22T00:10:07;75289.44;;;-148.63;34.65
61528;BME280;47395;42.032;-8.634;2024-03-22T00:12:08;75349.47;;;-148.63;35.22
61528;BME280;47395;42.032;-8.634;2024-03-22T00:14:11;75383.47;;;-148.63;35.39
61528;BME280;47395;42.032;-8.634;2024-03-22T00:16:13;75343.44;;;-148.63;35.09
61528;BME280;47395;42.032;-8.634;2024-03-22T00:18:14;75311.44;;;-148.63;34.74
61528;BME280;47395;42.032;-8.634;2024-03-22T00:20:15;75283.44;;;-148.63;34.50
61528;BME280;47395;42.032;-8.634;2024-03-22T00:22:16;75309.44;;;-148.63;34.58
61528;BME280;47395;42.032;-8.634;2024-03-22T00:24:17;75359.47;;;-148.63;35.46
61528;BME280;47395;42.032;-8.634;2024-03-22T00:26:18;75363.47;;;-148.63;35.54
61528;BME280;47395;42.032;-8.634;2024-03-22T00:28:19;75269.44;;;-148.63;34.62
61528;BME280;47395;42.032;-8.634;2024-03-22T00:30:20;75339.44;;;-148.63;35.04
61528;BME280;47395;42.032;-8.634;2024-03-22T00:32:23;75305.44;;;-148.63;34.71
61528;BME280;47395;42.032;-8.634;2024-03-22T00:34:24;75307.44;;;-148.63;34.79
61528;BME280;47395;42.032;-8.634;2024-03-22T00:36:25;75327.44;;;-148.63;34.97
61528;BME280;47395;42.032;-8.634;2024-03-22T00:38:27;75337.44;;;-148.63;35.55
61528;BME280;47395;42.032;-8.634;2024-03-22T00:40:29;75269.44;;;-148.63;34.88
61528;BME280;47395;42.032;-8.634;2024-03-22T00:42:30;75285.44;;;-148.63;34.94
61528;BME280;47395;42.032;-8.634;2024-03-22T00:44:31;75249.44;;;-148.63;34.84
61528;BME280;47395;42.032;-8.634;2024-03-22T00:46:32;75275.44;;;-148.63;35.06
61528;BME280;47395;42.032;-8.634;2024-03-22T00:48:35;75243.44;;;-148.63;34.35
61528;BME280;47395;42.032;-8.634;2024-03-22T00:50:36;75241.44;;;-148.63;34.43
61528;BME280;47395;42.032;-8.634;2024-03-22T00:52:37;75277.44;;;-148.63;34.62
61528;BME280;47395;42.032;-8.634;2024-03-22T00:54:38;75227.44;;;-148.63;34.35
61528;BME280;47395;42.032;-8.634;2024-03-22T00:56:41;75191.41;;;-148.63;33.97
61528;BME280;47395;42.032;-8.634;2024-03-22T00:58:42;75189.41;;;-148.63;34.02
61528;BME280;47395;42.032;-8.634;2024-03-22T01:00:43;75189.41;;;-148.63;33.92
61528;BME280;47395;42.032;-8.634;2024-03-22T01:02:45;75217.44;;;-148.63;33.95
61528;BME280;47395;42.032;-8.634;2024-03-22T01:04:45;75235.44;;;-148.63;34.15
61528;BME280;47395;42.032;-8.634;2024-03-22T01:06:47;75267.44;;;-148.63;34.27
61528;BME280;47395;42.032;-8.634;2024-03-22T01:08:48;75271.44;;;-148.63;34.52
61528;BME280;47395;42.032;-8.634;2024-03-22T01:10:49;75279.44;;;-148.63;34.66
61528;BME280;47395;42.032;-8.634;2024-03-22T01:12:50;75273.44;;;-148.63;34.65
61528;BME280;47395;42.032;-8.634;2024-03-22T01:14:51;75291.44;;;-148.63;34.48
61528;BME280;47395;42.032;-8.634;2024-03-22T01:16:52;75317.44;;;-148.63;34.90
61528;BME280;47395;42.032;-8.634;2024-03-22T01:18:54;75309.44;;;-148.63;34.70
61528;BME280;47395;42.032;-8.634;2024-03-22T01:20:56;75305.44;;;-148.63;35.04
61528;BME280;47395;42.032;-8.634;2024-03-22T01:22:59;75341.44;;;-148.63;35.68
61528;BME280;47395;42.032;-8.634;2024-03-22T01:25:01;75367.47;;;-148.63;35.90
61528;BME280;47395;42.032;-8.634;2024-03-22T01:27:02;75365.47;;;-148.63;35.62
61528;BME280;47395;42.032;-8.634;2024-03-22T01:29:03;75453.47;;;-148.63;36.25
61528;BME280;47395;42.032;-8.634;2024-03-22T01:31:06;75369.47;;;-148.63;35.71
61528;BME280;47395;42.032;-8.634;2024-03-22T01:33:07;75365.47;;;-148.63;35.87
61528;BME280;47395;42.032;-8.634;2024-03-22T01:35:08;75397.47;;;-148.63;36.20
61528;BME280;47395;42.032;-8.634;2024-03-22T01:37:10;75389.47;;;-148.63;35.97
61528;BME280;47395;42.032;-8.634;2024-03-22T01:39:12;75409.47;;;-148.63;36.28
61528;BME280;47395;42.032;-8.634;2024-03-22T01:41:15;75349.47;;;-148.63;35.41
61528;BME280;47395;42.032;-8.634;2024-03-22T01:43:16;75291.44;;;-148.63;35.01
61528;BME280;47395;42.032;-8.634;2024-03-22T01:45:17;75333.44;;;-148.63;35.44
61528;BME280;47395;42.032;-8.634;2024-03-22T01:47:19;75277.44;;;-148.63;34.71
61528;BME280;47395;42.032;-8.634;2024-03-22T01:49:20;75233.44;;;-148.63;34.31
61528;BME280;47395;42.032;-8.634;2024-03-22T01:51:24;75249.44;;;-148.63;34.73
61528;BME280;47395;42.032;-8.634;2024-03-22T01:53:26;75245.44;;;-148.63;34.63
61528;BME280;47395;42.032;-8.634;2024-03-22T01:55:29;75243.44;;;-148.63;34.53
61528;BME280;47395;42.032;-8.634;2024-03-22T01:57:51;75221.44;;;-148.63;34.17
61528;BME280;47395;42.032;-8.634;2024-03-22T01:59:55;75193.41;;;-148.63;34.03
61528;BME280;47395;42.032;-8.634;2024-03-22T02:01:57;75201.41;;;-148.63;34.17
61528;BME280;47395;42.032;-8.634;2024-03-22T02:03:59;75241.44;;;-148.63;34.39
61528;BME280;47395;42.032;-8.634;2024-03-22T02:06:00;75251.44;;;-148.63;34.46
61528;BME280;47395;42.032;-8.634;2024-03-22T02:08:02;75221.44;;;-148.63;34.05
61528;BME280;47395;42.032;-8.634;2024-03-22T02:10:04;75233.44;;;-148.63;34.36
61528;BME280;47395;42.032;-8.634;2024-03-22T02:12:06;75249.44;;;-148.63;34.38
61528;BME280;47395;42.032;-8.634;2024-03-22T02:14:08;75279.44;;;-148.63;34.55
61528;BME280;47395;42.032;-8.634;2024-03-22T02:16:09;75241.44;;;-148.63;34.14
61528;BME280;47395;42.032;-8.634;2024-03-22T02:18:10;75271.44;;;-148.63;34.41
61528;BME280;47395;42.032;-8.634;2024-03-22T02:20:11;75221.44;;;-148.63;33.90
61528;BME280;47395;42.032;-8.634;2024-03-22T02:22:13;75201.41;;;-148.63;33.51
61528;BME280;47395;42.032;-8.634;2024-03-22T02:24:14;75245.44;;;-148.63;34.03
61528;BME280;47395;42.032;-8.634;2024-03-22T02:26:16;75213.41;;;-148.63;33.67
61528;BME280;47395;42.032;-8.634;2024-03-22T02:28:17;75243.44;;;-148.63;33.65
61528;BME280;47395;42.032;-8.634;2024-03-22T02:30:18;75225.44;;;-148.63;33.88
61528;BME280;47395;42.032;-8.634;2024-03-22T02:32:19;75239.44;;;-148.63;34.14
61528;BME280;47395;42.032;-8.634;2024-03-22T02:34:20;75259.44;;;-148.63;34.06
61528;BME280;47395;42.032;-8.634;2024-03-22T02:36:21;75259.44;;;-148.63;34.28
61528;BME280;47395;42.032;-8.634;2024-03-22T02:38:23;75265.44;;;-148.63;34.21
61528;BME280;47395;42.032;-8.634;2024-03-22T02:40:25;75211.41;;;-148.63;34.20
61528;BME280;47395;42.032;-8.634;2024-03-22T02:42:27;75201.41;;;-148.63;33.92
61528;BME280;47395;42.032;-8.634;2024-03-22T02:44:29;75195.41;;;-148.63;34.00
61528;BME280;47395;42.032;-8.634;2024-03-22T02:46:30;75167.41;;;-148.63;33.58
61528;BME280;47395;42.032;-8.634;2024-03-22T02:48:31;75193.41;;;-148.63;33.73
61528;BME280;47395;42.032;-8.634;2024-03-22T02:50:33;75251.44;;;-148.63;33.83
61528;BME280;47395;42.032;-8.634;2024-03-22T02:52:34;75241.44;;;-148.63;33.91
61528;BME280;47395;42.032;-8.634;2024-03-22T02:54:35;75215.44;;;-148.63;33.98
61528;BME280;47395;42.032;-8.634;2024-03-22T02:56:36;75173.41;;;-148.63;33.43
61528;BME280;47395;42.032;-8.634;2024-03-22T02:58:37;75175.41;;;-148.63;33.42
61528;BME280;47395;42.032;-8.634;2024-03-22T03:00:38;75139.41;;;-148.63;33.40
61528;BME280;47395;42.032;-8.634;2024-03-22T03:02:39;75189.41;;;-148.63;33.62
61528;BME280;47395;42.032;-8.634;2024-03-22T03:04:40;75243.44;;;-148.63;34.50
61528;BME280;47395;42.032;-8.634;2024-03-22T03:06:41;75241.44;;;-148.63;34.30
61528;BME280;47395;42.032;-8.634;2024-03-22T03:08:42;75241.44;;;-148.63;34.25
61528;BME280;47395;42.032;-8.634;2024-03-22T03:10:44;75317.44;;;-148.63;34.87
61528;BME280;47395;42.032;-8.634;2024-03-22T03:12:46;75297.44;;;-148.63;34.69
61528;BME280;47395;42.032;-8.634;2024-03-22T03:14:47;75331.44;;;-148.63;35.56
61528;BME280;47395;42.032;-8.634;2024-03-22T03:16:48;75301.44;;;-148.63;35.39
61528;BME280;47395;42.032;-8.634;2024-03-22T03:18:49;75307.44;;;-148.63;35.26
61528;BME280;47395;42.032;-8.634;2024-03-22T03:20:50;75305.44;;;-148.63;35.21
61528;BME280;47395;42.032;-8.634;2024-03-22T03:22:51;75229.44;;;-148.63;34.42
61528;BME280;47395;42.032;-8.634;2024-03-22T03:24:53;75247.44;;;-148.63;34.36
61528;BME280;47395;42.032;-8.634;2024-03-22T03:26:54;75213.41;;;-148.63;34.25
61528;BME280;47395;42.032;-8.634;2024-03-22T03:28:55;75285.44;;;-148.63;34.57
61528;BME280;47395;42.032;-8.634;2024-03-22T03:30:57;75193.41;;;-148.63;34.21
61528;BME280;47395;42.032;-8.634;2024-03-22T03:32:58;75233.44;;;-148.63;34.11
61528;BME280;47395;42.032;-8.634;2024-03-22T03:34:59;75173.41;;;-148.63;33.61
61528;BME280;47395;42.032;-8.634;2024-03-22T03:37:00;75187.41;;;-148.63;33.65
61528;BME280;47395;42.032;-8.634;2024-03-22T03:39:02;75253.44;;;-148.63;34.38
61528;BME280;47395;42.032;-8.634;2024-03-22T03:41:04;75213.41;;;-148.63;33.69
61528;BME280;47395;42.032;-8.634;2024-03-22T03:43:05;75193.41;;;-148.63;33.56
61528;BME280;47395;42.032;-8.634;2024-03-22T03:45:07;75205.41;;;-148.63;33.69
61528;BME280;47395;42.032;-8.634;2024-03-22T03:47:08;75283.44;;;-148.63;34.27
61528;BME280;47395;42.032;-8.634;2024-03-22T03:49:09;75301.44;;;-148.63;34.69
61528;BME280;47395;42.032;-8.634;2024-03-22T03:51:11;75287.44;;;-148.63;34.45
61528;BME280;47395;42.032;-8.634;2024-03-22T03:53:13;75263.44;;;-148.63;33.97
61528;BME280;47395;42.032;-8.634;2024-03-22T03:55:17;75243.44;;;-148.63;34.14
61528;BME280;47395;42.032;-8.634;2024-03-22T03:57:17;75247.44;;;-148.63;33.94
61528;BME280;47395;42.032;-8.634;2024-03-22T03:59:18;75193.41;;;-148.63;33.57
61528;BME280;47395;42.032;-8.634;2024-03-22T04:01:20;75227.44;;;-148.63;34.13
61528;BME280;47395;42.032;-8.634;2024-03-22T04:03:22;75279.44;;;-148.63;33.94
61528;BME280;47395;42.032;-8.634;2024-03-22T04:05:23;75225.44;;;-148.63;33.62
61528;BME280;47395;42.032;-8.634;2024-03-22T04:07:24;75201.41;;;-148.63;33.40
61528;BME280;47395;42.032;-8.634;2024-03-22T04:09:25;75193.41;;;-148.63;33.48
61528;BME280;47395;42.032;-8.634;2024-03-22T04:11:29;75201.41;;;-148.63;33.21
61528;BME280;47395;42.032;-8.634;2024-03-22T04:13:30;75183.41;;;-148.63;32.97
61528;BME280;47395;42.032;-8.634;2024-03-22T04:15:35;75187.41;;;-148.63;33.06
61528;BME280;47395;42.032;-8.634;2024-03-22T04:17:36;75179.41;;;-148.63;33.06
61528;BME280;47395;42.032;-8.634;2024-03-22T04:19:37;75361.47;;;-148.63;34.33
61528;BME280;47395;42.032;-8.634;2024-03-22T04:21:38;75439.47;;;-148.63;35.33
61528;BME280;47395;42.032;-8.634;2024-03-22T04:23:40;75397.47;;;-148.63;35.02
61528;BME280;47395;42.032;-8.634;2024-03-22T04:25:54;75395.47;;;-148.63;34.51
61528;BME280;47395;42.032;-8.634;2024-03-22T04:27:55;75367.47;;;-148.63;34.52
61528;BME280;47395;42.032;-8.634;2024-03-22T04:29:56;75329.44;;;-148.63;34.14
61528;BME280;47395;42.032;-8.634;2024-03-22T04:31:57;75365.47;;;-148.63;34.40
61528;BME280;47395;42.032;-8.634;2024-03-22T04:34:00;75303.44;;;-148.63;33.96
61528;BME280;47395;42.032;-8.634;2024-03-22T04:36:01;75311.44;;;-148.63;34.03
61528;BME280;47395;42.032;-8.634;2024-03-22T04:38:03;75305.44;;;-148.63;33.97
61528;BME280;47395;42.032;-8.634;2024-03-22T04:40:05;75349.47;;;-148.63;34.47
61528;BME280;47395;42.032;-8.634;2024-03-22T04:42:06;75411.47;;;-148.63;34.74
61528;BME280;47395;42.032;-8.634;2024-03-22T04:44:09;75523.50;;;-148.63;36.04
61528;BME280;47395;42.032;-8.634;2024-03-22T04:46:10;75513.50;;;-148.63;36.00
61528;BME280;47395;42.032;-8.634;2024-03-22T04:48:13;75589.53;;;-148.63;36.87
61528;BME280;47395;42.032;-8.634;2024-03-22T04:50:15;75415.47;;;-148.63;35.09
61528;BME280;47395;42.032;-8.634;2024-03-22T04:52:17;75379.47;;;-148.63;34.51
61528;BME280;47395;42.032;-8.634;2024-03-22T04:54:18;75519.50;;;-148.63;36.04
61528;BME280;47395;42.032;-8.634;2024-03-22T04:56:19;75429.47;;;-148.63;34.99
61528;BME280;47395;42.032;-8.634;2024-03-22T04:58:21;75377.47;;;-148.63;34.62
61528;BME280;47395;42.032;-8.634;2024-03-22T05:00:22;75379.47;;;-148.63;34.42
61528;BME280;47395;42.032;-8.634;2024-03-22T05:04:49;75491.50;;;-148.63;35.48
61528;BME280;47395;42.032;-8.634;2024-03-22T05:06:50;75423.47;;;-148.63;34.82
61528;BME280;47395;42.032;-8.634;2024-03-22T05:08:51;75351.47;;;-148.63;34.54
61528;BME280;47395;42.032;-8.634;2024-03-22T05:10:52;75355.47;;;-148.63;34.28
61528;BME280;47395;42.032;-8.634;2024-03-22T05:12:54;75347.44;;;-148.63;34.14
61528;BME280;47395;42.032;-8.634;2024-03-22T05:14:55;75327.44;;;-148.63;34.14
61528;BME280;47395;42.032;-8.634;2024-03-22T05:16:56;75325.44;;;-148.63;34.09
61528;BME280;47395;42.032;-8.634;2024-03-22T05:18:57;75379.47;;;-148.63;34.35
61528;BME280;47395;42.032;-8.634;2024-03-22T05:20:57;75399.47;;;-148.63;34.62
61528;BME280;47395;42.032;-8.634;2024-03-22T05:22:58;75377.47;;;-148.63;34.41
61528;BME280;47395;42.032;-8.634;2024-03-22T05:24:59;75357.47;;;-148.63;34.23
61528;BME280;47395;42.032;-8.634;2024-03-22T05:27:00;75393.47;;;-148.63;34.41
61528;BME280;47395;42.032;-8.634;2024-03-22T05:29:01;75361.47;;;-148.63;34.16
61528;BME280;47395;42.032;-8.634;2024-03-22T05:31:03;75349.47;;;-148.63;34.06
61528;BME280;47395;42.032;-8.634;2024-03-22T05:33:04;75355.47;;;-148.63;33.94
61528;BME280;47395;42.032;-8.634;2024-03-22T05:35:05;75353.47;;;-148.63;34.01
61528;BME280;47395;42.032;-8.634;2024-03-22T05:37:07;75373.47;;;-148.63;34.19
61528;BME280;47395;42.032;-8.634;2024-03-22T05:39:09;75389.47;;;-148.63;34.22
61528;BME280;47395;42.032;-8.634;2024-03-22T05:41:13;75381.47;;;-148.63;34.29
61528;BME280;47395;42.032;-8.634;2024-03-22T05:43:14;75373.47;;;-148.63;34.14
61528;BME280;47395;42.032;-8.634;2024-03-22T05:45:15;75529.50;;;-148.63;35.89
61528;BME280;47395;42.032;-8.634;2024-03-22T05:47:16;75399.47;;;-148.63;34.66
61528;BME280;47395;42.032;-8.634;2024-03-22T05:49:17;75381.47;;;-148.63;34.43
61528;BME280;47395;42.032;-8.634;2024-03-22T05:51:18;75423.47;;;-148.63;34.50
61528;BME280;47395;42.032;-8.634;2024-03-22T05:53:19;75413.47;;;-148.63;34.74
61528;BME280;47395;42.032;-8.634;2024-03-22T05:55:20;75485.50;;;-148.63;35.14
61528;BME280;47395;42.032;-8.634;2024-03-22T05:57:21;75411.47;;;-148.63;34.75
61528;BME280;47395;42.032;-8.634;2024-03-22T05:59:22;75387.47;;;-148.63;34.44
61528;BME280;47395;42.032;-8.634;2024-03-22T06:01:23;75383.47;;;-148.63;34.38
61528;BME280;47395;42.032;-8.634;2024-03-22T06:03:23;75371.47;;;-148.63;34.25
61528;BME280;47395;42.032;-8.634;2024-03-22T06:05:24;75371.47;;;-148.63;34.19
61528;BME280;47395;42.032;-8.634;2024-03-22T06:07:25;75351.47;;;-148.63;34.14
61528;BME280;47395;42.032;-8.634;2024-03-22T06:09:27;75383.47;;;-148.63;34.25
61528;BME280;47395;42.032;-8.634;2024-03-22T06:11:37;75373.47;;;-148.63;34.28
61528;BME280;47395;42.032;-8.634;2024-03-22T06:13:38;75379.47;;;-148.63;34.27
61528;BME280;47395;42.032;-8.634;2024-03-22T06:15:42;75355.47;;;-148.63;34.10
61528;BME280;47395;42.032;-8.634;2024-03-22T06:17:46;75375.47;;;-148.63;34.18
61528;BME280;47395;42.032;-8.634;2024-03-22T06:19:46;75437.47;;;-148.63;34.73
61528;BME280;47395;42.032;-8.634;2024-03-22T06:21:47;75435.47;;;-148.63;34.71
61528;BME280;47395;42.032;-8.634;2024-03-22T06:23:49;75503.50;;;-148.63;35.38
61528;BME280;47395;42.032;-8.634;2024-03-22T06:25:54;75493.50;;;-148.63;35.41
61528;BME280;47395;42.032;-8.634;2024-03-22T06:27:55;75503.50;;;-148.63;35.60
61528;BME280;47395;42.032;-8.634;2024-03-22T06:29:56;75495.50;;;-148.63;35.65
61528;BME280;47395;42.032;-8.634;2024-03-22T06:31:57;75513.50;;;-148.63;36.45
61528;BME280;47395;42.032;-8.634;2024-03-22T06:33:58;75517.50;;;-148.63;36.37
61528;BME280;47395;42.032;-8.634;2024-03-22T06:36:02;75513.50;;;-148.63;36.36
61528;BME280;47395;42.032;-8.634;2024-03-22T06:38:04;75501.50;;;-148.63;35.86
61528;BME280;47395;42.032;-8.634;2024-03-22T06:40:06;75493.50;;;-148.63;35.24
61528;BME280;47395;42.032;-8.634;2024-03-22T06:42:07;75483.50;;;-148.63;35.41
61528;BME280;47395;42.032;-8.634;2024-03-22T06:44:08;75501.50;;;-148.63;35.19
61528;BME280;47395;42.032;-8.634;2024-03-22T06:46:12;75497.50;;;-148.63;34.83
61528;BME280;47395;42.032;-8.634;2024-03-22T06:48:13;75391.47;;;-148.63;34.14
61528;BME280;47395;42.032;-8.634;2024-03-22T06:50:17;75433.47;;;-148.63;34.25
61528;BME280;47395;42.032;-8.634;2024-03-22T06:52:19;75437.47;;;-148.63;34.14
61528;BME280;47395;42.032;-8.634;2024-03-22T06:54:20;75425.47;;;-148.63;34.47
61528;BME280;47395;42.032;-8.634;2024-03-22T06:56:21;75393.47;;;-148.63;34.04
61528;BME280;47395;42.032;-8.634;2024-03-22T06:58:22;75483.50;;;-148.63;35.31
61528;BME280;47395;42.032;-8.634;2024-03-22T07:00:24;75487.50;;;-148.63;35.91
61528;BME280;47395;42.032;-8.634;2024-03-22T07:02:25;75519.50;;;-148.63;35.57
61528;BME280;47395;42.032;-8.634;2024-03-22T07:04:26;75433.47;;;-148.63;34.66
61528;BME280;47395;42.032;-8.634;2024-03-22T07:06:28;75389.47;;;-148.63;33.97
61528;BME280;47395;42.032;-8.634;2024-03-22T07:08:32;75355.47;;;-148.63;33.60
61528;BME280;47395;42.032;-8.634;2024-03-22T07:10:33;75353.47;;;-148.63;33.34
61528;BME280;47395;42.032;-8.634;2024-03-22T07:12:34;75375.47;;;-148.63;33.89
61528;BME280;47395;42.032;-8.634;2024-03-22T07:14:35;75373.47;;;-148.63;33.61
61528;BME280;47395;42.032;-8.634;2024-03-22T07:16:36;75381.47;;;-148.63;33.95
61528;BME280;47395;42.032;-8.634;2024-03-22T07:18:37;75459.47;;;-148.63;34.28
61528;BME280;47395;42.032;-8.634;2024-03-22T07:20:38;75349.47;;;-148.63;33.56
61528;BME280;47395;42.032;-8.634;2024-03-22T07:22:39;75279.44;;;-148.63;33.26
61528;BME280;47395;42.032;-8.634;2024-03-22T07:24:40;75179.41;;;-148.63;32.09
61528;BME280;47395;42.032;-8.634;2024-03-22T07:26:41;75031.38;;;-148.63;30.77
61528;BME280;47395;42.032;-8.634;2024-03-22T07:28:42;74923.38;;;-148.63;30.06
61528;BME280;47395;42.032;-8.634;2024-03-22T07:30:43;74837.34;;;-148.63;29.23
61528;BME280;47395;42.032;-8.634;2024-03-22T07:32:46;74761.34;;;-148.63;28.62
61528;BME280;47395;42.032;-8.634;2024-03-22T07:34:48;74713.34;;;-148.63;28.01
61528;BME280;47395;42.032;-8.634;2024-03-22T07:36:48;74691.34;;;-148.63;27.69
61528;BME280;47395;42.032;-8.634;2024-03-22T07:38:50;74621.34;;;-148.63;27.40
61528;BME280;47395;42.032;-8.634;2024-03-22T07:40:51;74589.34;;;-148.63;26.93
61528;BME280;47395;42.032;-8.634;2024-03-22T07:42:52;74545.34;;;-148.63;26.57
61528;BME280;47395;42.032;-8.634;2024-03-22T07:44:53;74477.34;;;-148.63;26.49
61528;BME280;47395;42.032;-8.634;2024-03-22T07:46:54;74405.31;;;-148.63;25.94
61528;BME280;47395;42.032;-8.634;2024-03-22T07:48:55;74329.31;;;-148.63;25.67
61528;BME280;47395;42.032;-8.634;2024-03-22T07:51:00;74393.31;;;-148.63;25.85
61528;BME280;47395;42.032;-8.634;2024-03-22T07:53:01;74325.31;;;-148.63;25.39
61528;BME280;47395;42.032;-8.634;2024-03-22T07:55:02;74241.31;;;-148.63;25.26
61528;BME280;47395;42.032;-8.634;2024-03-22T07:57:03;74289.31;;;-148.63;25.34
61528;BME280;47395;42.032;-8.634;2024-03-22T07:59:04;74143.34;;;-148.63;24.95
61528;BME280;47395;42.032;-8.634;2024-03-22T08:01:05;74157.34;;;-148.63;24.39
61528;BME280;47395;42.032;-8.634;2024-03-22T08:03:06;74109.34;;;-148.63;24.31
61528;BME280;47395;42.032;-8.634;2024-03-22T08:05:08;74079.34;;;-148.63;24.16
61528;BME280;47395;42.032;-8.634;2024-03-22T08:07:09;74113.34;;;-148.63;24.09
61528;BME280;47395;42.032;-8.634;2024-03-22T08:09:10;74153.34;;;-148.63;24.35
61528;BME280;47395;42.032;-8.634;2024-03-22T08:11:11;74029.34;;;-148.63;23.79
61528;BME280;47395;42.032;-8.634;2024-03-22T08:13:12;73977.34;;;-148.63;23.98
61528;BME280;47395;42.032;-8.634;2024-03-22T08:15:13;73939.34;;;-148.63;23.81
61528;BME280;47395;42.032;-8.634;2024-03-22T08:17:14;73987.34;;;-148.63;23.72
61528;BME280;47395;42.032;-8.634;2024-03-22T08:19:15;73915.34;;;-148.63;23.15
61528;BME280;47395;42.032;-8.634;2024-03-22T08:21:16;73899.34;;;-148.63;23.03
61528;BME280;47395;42.032;-8.634;2024-03-22T08:23:17;73807.38;;;-148.63;22.86
61528;BME280;47395;42.032;-8.634;2024-03-22T08:25:20;73771.38;;;-148.63;22.84
61528;BME280;47395;42.032;-8.634;2024-03-22T08:27:22;73751.38;;;-148.63;22.71
61528;BME280;47395;42.032;-8.634;2024-03-22T08:29:25;73713.38;;;-148.63;22.12
61528;BME280;47395;42.032;-8.634;2024-03-22T08:31:31;73837.34;;;-148.63;22.86
61528;BME280;47395;42.032;-8.634;2024-03-22T08:33:35;73701.38;;;-148.63;22.48
61528;BME280;47395;42.032;-8.634;2024-03-22T08:35:36;73607.41;;;-148.63;21.82
61528;BME280;47395;42.032;-8.634;2024-03-22T08:37:38;73585.41;;;-148.63;21.87
61528;BME280;47395;42.032;-8.634;2024-03-22T08:39:39;73503.41;;;-148.63;21.67
61528;BME280;47395;42.032;-8.634;2024-03-22T08:41:39;73839.34;;;-148.63;23.01
61528;BME280;47395;42.032;-8.634;2024-03-22T08:43:40;73809.38;;;-148.63;22.48
61528;BME280;47395;42.032;-8.634;2024-03-22T08:45:41;73701.38;;;-148.63;22.43
61528;BME280;47395;42.032;-8.634;2024-03-22T08:47:43;73585.41;;;-148.63;21.77
61528;BME280;47395;42.032;-8.634;2024-03-22T08:49:46;73725.38;;;-148.63;22.55
61528;BME280;47395;42.032;-8.634;2024-03-22T08:51:47;73569.41;;;-148.63;21.88
61528;BME280;47395;42.032;-8.634;2024-03-22T08:53:48;73517.41;;;-148.63;21.58
61528;BME280;47395;42.032;-8.634;2024-03-22T08:55:49;73451.44;;;-148.63;21.69
61528;BME280;47395;42.032;-8.634;2024-03-22T08:57:51;73421.44;;;-148.63;21.43
61528;BME280;47395;42.032;-8.634;2024-03-22T08:59:52;73477.41;;;-148.63;21.43
61528;BME280;47395;42.032;-8.634;2024-03-22T09:01:52;73315.47;;;-148.63;21.00
61528;BME280;47395;42.032;-8.634;2024-03-22T09:03:53;73271.47;;;-148.63;20.65
61528;BME280;47395;42.032;-8.634;2024-03-22T09:05:58;73169.50;;;-148.63;19.81
61528;BME280;47395;42.032;-8.634;2024-03-22T09:07:59;73249.47;;;-148.63;20.70
61528;BME280;47395;42.032;-8.634;2024-03-22T09:10:00;73237.47;;;-148.63;20.99
61528;BME280;47395;42.032;-8.634;2024-03-22T09:12:01;73267.47;;;-148.63;20.70
61528;BME280;47395;42.032;-8.634;2024-03-22T09:14:02;73347.44;;;-148.63;21.11
61528;BME280;47395;42.032;-8.634;2024-03-22T09:16:03;73241.47;;;-148.63;20.59
61528;BME280;47395;42.032;-8.634;2024-03-22T09:18:05;73237.47;;;-148.63;20.85
61528;BME280;47395;42.032;-8.634;2024-03-22T09:20:06;73241.47;;;-148.63;20.92
61528;BME280;47395;42.032;-8.634;2024-03-22T09:22:08;73313.47;;;-148.63;20.92
61528;BME280;47395;42.032;-8.634;2024-03-22T09:24:09;73409.44;;;-148.63;21.28
61528;BME280;47395;42.032;-8.634;2024-03-22T09:26:11;73445.44;;;-148.63;21.30
61528;BME280;47395;42.032;-8.634;2024-03-22T09:28:12;73477.41;;;-148.63;21.49
61528;BME280;47395;42.032;-8.634;2024-03-22T09:30:13;73455.44;;;-148.63;21.45
61528;BME280;47395;42.032;-8.634;2024-03-22T09:32:15;73447.44;;;-148.63;21.21
61528;BME280;47395;42.032;-8.634;2024-03-22T09:34:16;73331.47;;;-148.63;21.34
61528;BME280;47395;42.032;-8.634;2024-03-22T09:36:17;73327.47;;;-148.63;20.64
61528;BME280;47395;42.032;-8.634;2024-03-22T09:38:19;73241.47;;;-148.63;20.91
61528;BME280;47395;42.032;-8.634;2024-03-22T09:40:20;73167.50;;;-148.63;20.35
61528;BME280;47395;42.032;-8.634;2024-03-22T09:42:22;73231.47;;;-148.63;20.50
61528;BME280;47395;42.032;-8.634;2024-03-22T09:44:27;73145.50;;;-148.63;19.89
61528;BME280;47395;42.032;-8.634;2024-03-22T09:46:29;73051.53;;;-148.63;19.64
61528;BME280;47395;42.032;-8.634;2024-03-22T09:48:31;73079.53;;;-148.63;20.19
61528;BME280;47395;42.032;-8.634;2024-03-22T09:50:35;73149.50;;;-148.63;20.34
61528;BME280;47395;42.032;-8.634;2024-03-22T09:52:37;73173.50;;;-148.63;20.42
61528;BME280;47395;42.032;-8.634;2024-03-22T09:54:38;73009.56;;;-148.63;19.89
61528;BME280;47395;42.032;-8.634;2024-03-22T09:56:40;73139.50;;;-148.63;20.06
61528;BME280;47395;42.032;-8.634;2024-03-22T09:58:42;73049.53;;;-148.63;20.29
61528;BME280;47395;42.032;-8.634;2024-03-22T10:00:43;73091.53;;;-148.63;20.25
61528;BME280;47395;42.032;-8.634;2024-03-22T10:02:46;73017.53;;;-148.63;19.99
61528;BME280;47395;42.032;-8.634;2024-03-22T10:04:48;72981.56;;;-148.63;20.10
61528;BME280;47395;42.032;-8.634;2024-03-22T10:06:52;72827.63;;;-148.63;19.47
61528;BME280;47395;42.032;-8.634;2024-03-22T10:08:53;72835.63;;;-148.63;19.46
61528;BME280;47395;42.032;-8.634;2024-03-22T10:10:54;72881.59;;;-148.63;19.67
61528;BME280;47395;42.032;-8.634;2024-03-22T10:12:55;72889.59;;;-148.63;19.59
61528;BME280;47395;42.032;-8.634;2024-03-22T10:14:57;73121.50;;;-148.63;20.36
61528;BME280;47395;42.032;-8.634;2024-03-22T10:16:58;73101.53;;;-148.63;20.40
61528;BME280;47395;42.032;-8.634;2024-03-22T10:18:59;73163.50;;;-148.63;20.51
61528;BME280;47395;42.032;-8.634;2024-03-22T10:21:04;73141.50;;;-148.63;20.62